Wan Hai 273 — 9V7586 — position and weather

sailwx.info

Track history (hours):
 
Tides and Currents Weather Stations Pressure Air Temp Water Temp Dewpoint Dewpoint Depression Visibility Wind Speed Wind Dir Waves Ship Positions

Wan Hai 273

Last reported at 2016-Dec-06 11:09 UTC. Time now 2016-Dec-06 16:04 UTC.
Position N 35°06' E 139°42'.

Length 172 m; draft 7.1 m.

Type: Cargo ship. MMSI: 566406000.

Date/timePositionNaut miles runAvg speedWind from/ knotsBaromVisibWave heightAir tempDewpointWater temp
2016-Dec-06 11:09N 35°06' E 139°42'915.0
2016-Dec-06 10:33N 35°14' E 139°46'1312.7
2016-Dec-06 09:33N 35°26' E 139°42'1 1.1
2016-Dec-06 08:33N 35°27' E 139°41'0 0.0
2016-Dec-06 07:33N 35°27' E 139°41'0 0.0
2016-Dec-06 06:33N 35°27' E 139°41'0 0.0
2016-Dec-06 05:32N 35°27' E 139°41'0 0.0
2016-Dec-06 04:33N 35°27' E 139°41'0 0.0
2016-Dec-06 03:33N 35°27' E 139°41'3 2.6
2016-Dec-06 02:33N 35°26' E 139°44'1 1.3
2016-Dec-06 01:31N 35°27' E 139°46'0 0.0
2016-Dec-06 00:31N 35°27' E 139°46'0 0.1
2016-Dec-05 23:31N 35°27' E 139°45'0 0.0
2016-Dec-05 22:31N 35°27' E 139°45'0 0.1
2016-Dec-05 21:31N 35°27' E 139°45'0 0.1
2016-Dec-05 20:31N 35°27' E 139°45'0 0.0
2016-Dec-05 19:31N 35°27' E 139°45'0 0.0
2016-Dec-05 18:31N 35°27' E 139°45'0 0.1
2016-Dec-05 17:31N 35°27' E 139°45'0 0.0
2016-Dec-05 16:31N 35°27' E 139°45'0 0.0
2016-Dec-05 15:31N 35°27' E 139°45'0 0.0
2016-Dec-05 14:31N 35°27' E 139°45'5 5.0
2016-Dec-05 13:33N 35°29' E 139°50'8 7.6
2016-Dec-05 12:33N 35°36' E 139°46'0 0.0
2016-Dec-05 11:33N 35°36' E 139°46'0 0.0
2016-Dec-05 10:33N 35°36' E 139°46'0 0.0
2016-Dec-05 08:33N 35°36' E 139°46'0 0.0
2016-Dec-05 07:33N 35°36' E 139°46'0 0.0
2016-Dec-05 06:30N 35°36' E 139°46'0 0.0
2016-Dec-05 00:09N 35°36' E 139°46'0 0.0
2016-Dec-04 23:33N 35°36' E 139°46'0 0.2
2016-Dec-04 22:33N 35°36' E 139°46'8 8.2
2016-Dec-04 21:33N 35°29' E 139°52'1312.6
2016-Dec-04 20:34N 35°18' E 139°45'1010.0
2016-Dec-04 19:33N 35°08' E 139°46'1212.0
2016-Dec-04 18:31N 34°58' E 139°37'  
2016-Dec-01 00:21N 22°34' E 114°17'1 1.7
2016-Nov-30 23:30N 22°34' E 114°15'0 0.0
2016-Nov-30 22:30N 22°34' E 114°15'0 0.0
2016-Nov-30 21:30N 22°34' E 114°15'0 0.0
2016-Nov-30 20:12N 22°34' E 114°15'0 0.0
2016-Nov-30 19:30N 22°34' E 114°15'0 0.0
2016-Nov-30 18:30N 22°34' E 114°15'0 0.0
2016-Nov-30 17:30N 22°34' E 114°15'0 0.0
2016-Nov-30 16:30N 22°34' E 114°15'19 4.5
2016-Nov-30 12:21N 22°18' E 114°06'15 6.5
2016-Nov-30 10:04N 22°28' E 113°54'0 0.0
2016-Nov-30 09:17N 22°28' E 113°54'0 0.0
2016-Nov-30 08:29N 22°28' E 113°54'0 0.0
2016-Nov-30 07:28N 22°28' E 113°54'0 0.0
2016-Nov-30 05:23N 22°28' E 113°54'0 0.0
2016-Nov-30 03:18N 22°28' E 113°54'0 0.0
2016-Nov-30 02:23N 22°28' E 113°54'0 0.0
2016-Nov-30 01:17N 22°28' E 113°54'0 0.0
2016-Nov-30 00:29N 22°28' E 113°54'0 0.0
2016-Nov-29 23:29N 22°28' E 113°54'4 4.0
2016-Nov-29 22:32N 22°24' E 113°54'9 7.3
2016-Nov-29 21:23N 22°21' E 114°03'  
Track history (hours):
 
Tides and Currents Weather Stations Pressure Air Temp Water Temp Dewpoint Dewpoint Depression Visibility Wind Speed Wind Dir Waves Ship Positions

Wan Hai 273

Last reported at 2016-Dec-06 11:09 UTC. Time now 2016-Dec-06 16:04 UTC.
Position N 35°06' E 139°42'.

Length 172 m; draft 7.1 m.

Type: Cargo ship. MMSI: 566406000.

Date/timePositionNaut miles runAvg speedWind from/ knotsBaromVisibWave heightAir tempDewpointWater temp
2016-Dec-06 11:09N 35°06' E 139°42'915.0
2016-Dec-06 10:33N 35°14' E 139°46'1312.7
2016-Dec-06 09:33N 35°26' E 139°42'1 1.1
2016-Dec-06 08:33N 35°27' E 139°41'0 0.0
2016-Dec-06 07:33N 35°27' E 139°41'0 0.0
2016-Dec-06 06:33N 35°27' E 139°41'0 0.0
2016-Dec-06 05:32N 35°27' E 139°41'0 0.0
2016-Dec-06 04:33N 35°27' E 139°41'0 0.0
2016-Dec-06 03:33N 35°27' E 139°41'3 2.6
2016-Dec-06 02:33N 35°26' E 139°44'1 1.3
2016-Dec-06 01:31N 35°27' E 139°46'0 0.0
2016-Dec-06 00:31N 35°27' E 139°46'0 0.1
2016-Dec-05 23:31N 35°27' E 139°45'0 0.0
2016-Dec-05 22:31N 35°27' E 139°45'0 0.1
2016-Dec-05 21:31N 35°27' E 139°45'0 0.1
2016-Dec-05 20:31N 35°27' E 139°45'0 0.0
2016-Dec-05 19:31N 35°27' E 139°45'0 0.0
2016-Dec-05 18:31N 35°27' E 139°45'0 0.1
2016-Dec-05 17:31N 35°27' E 139°45'0 0.0
2016-Dec-05 16:31N 35°27' E 139°45'0 0.0
2016-Dec-05 15:31N 35°27' E 139°45'0 0.0
2016-Dec-05 14:31N 35°27' E 139°45'5 5.0
2016-Dec-05 13:33N 35°29' E 139°50'8 7.6
2016-Dec-05 12:33N 35°36' E 139°46'0 0.0
2016-Dec-05 11:33N 35°36' E 139°46'0 0.0
2016-Dec-05 10:33N 35°36' E 139°46'0 0.0
2016-Dec-05 08:33N 35°36' E 139°46'0 0.0
2016-Dec-05 07:33N 35°36' E 139°46'0 0.0
2016-Dec-05 06:30N 35°36' E 139°46'0 0.0
2016-Dec-05 00:09N 35°36' E 139°46'0 0.0
2016-Dec-04 23:33N 35°36' E 139°46'0 0.2
2016-Dec-04 22:33N 35°36' E 139°46'8 8.2
2016-Dec-04 21:33N 35°29' E 139°52'1312.6
2016-Dec-04 20:34N 35°18' E 139°45'1010.0
2016-Dec-04 19:33N 35°08' E 139°46'1212.0
2016-Dec-04 18:31N 34°58' E 139°37'  
2016-Dec-01 00:21N 22°34' E 114°17'1 1.7
2016-Nov-30 23:30N 22°34' E 114°15'0 0.0
2016-Nov-30 22:30N 22°34' E 114°15'0 0.0
2016-Nov-30 21:30N 22°34' E 114°15'0 0.0
2016-Nov-30 20:12N 22°34' E 114°15'0 0.0
2016-Nov-30 19:30N 22°34' E 114°15'0 0.0
2016-Nov-30 18:30N 22°34' E 114°15'0 0.0
2016-Nov-30 17:30N 22°34' E 114°15'0 0.0
2016-Nov-30 16:30N 22°34' E 114°15'19 4.5
2016-Nov-30 12:21N 22°18' E 114°06'15 6.5
2016-Nov-30 10:04N 22°28' E 113°54'0 0.0
2016-Nov-30 09:17N 22°28' E 113°54'0 0.0
2016-Nov-30 08:29N 22°28' E 113°54'0 0.0
2016-Nov-30 07:28N 22°28' E 113°54'0 0.0
2016-Nov-30 05:23N 22°28' E 113°54'0 0.0
2016-Nov-30 03:18N 22°28' E 113°54'0 0.0
2016-Nov-30 02:23N 22°28' E 113°54'0 0.0
2016-Nov-30 01:17N 22°28' E 113°54'0 0.0
2016-Nov-30 00:29N 22°28' E 113°54'0 0.0
2016-Nov-29 23:29N 22°28' E 113°54'4 4.0
2016-Nov-29 22:32N 22°24' E 113°54'9 7.3
2016-Nov-29 21:23N 22°21' E 114°03'  

Dump ship's entire track history